Time;durP1;ratioP1;P1;durP2;ratioP2;P2;SDS_P1;SDS_P2;PMS_P1;PMS_P2;Temp;Humidity;BMP_temperature;BMP_pressure;BME280_temperature;BME280_humidity;BME280_pressure;Samples;Min_cycle;Max_cycle;Signal;HPM_P1;HPM_P2
2022/09/12 00:00:00;;;;;;;2.40;0.77;;;22.30;51.50;;;;;;6299934;28;20028;-81
2022/09/12 00:03:01;;;;;;;2.53;0.77;;;22.30;51.60;;;;;;6282736;28;20036;-80
2022/09/12 00:06:11;;;;;;;7.97;0.90;;;22.30;51.60;;;;;;6299107;28;20064;-81
2022/09/12 00:09:13;;;;;;;2.40;0.80;;;22.20;51.80;;;;;;6289817;28;20517;-80
2022/09/12 00:12:13;;;;;;;2.95;0.70;;;22.20;51.90;;;;;;6282236;28;20082;-81
2022/09/12 00:15:14;;;;;;;4.47;0.77;;;22.10;52.10;;;;;;6250087;28;20362;-80
2022/09/12 00:18:16;;;;;;;4.57;0.80;;;22.10;52.10;;;;;;6270169;28;20099;-80
2022/09/12 00:21:18;;;;;;;2.53;0.70;;;22.00;52.30;;;;;;6258987;28;20044;-79
2022/09/12 00:24:19;;;;;;;1.55;0.93;;;22.00;52.40;;;;;;6272883;28;20048;-80
2022/09/12 00:27:20;;;;;;;3.28;0.95;;;21.90;52.40;;;;;;6258484;28;20041;-80
2022/09/12 00:30:20;;;;;;;2.90;1.00;;;21.90;52.40;;;;;;6241716;28;20045;-80
2022/09/12 00:33:21;;;;;;;1.88;0.70;;;21.80;52.40;;;;;;6251424;28;20045;-79
2022/09/12 00:36:24;;;;;;;2.10;0.85;;;21.80;52.40;;;;;;6235966;28;20061;-80
2022/09/12 00:39:24;;;;;;;1.65;0.50;;;21.80;52.40;;;;;;6253100;28;20450;-80
2022/09/12 00:42:26;;;;;;;8.27;0.90;;;21.70;52.40;;;;;;6249991;28;20091;-79
2022/09/12 00:45:29;;;;;;;4.97;0.73;;;21.70;52.30;;;;;;6249319;28;20076;-79
2022/09/12 00:48:48;;;;;;;3.22;0.70;;;21.70;52.30;;;;;;6266039;28;20041;-79
2022/09/12 00:52:00;;;;;;;1.10;0.65;;;21.70;52.20;;;;;;6275790;28;20095;-80
2022/09/12 00:55:04;;;;;;;1.42;0.75;;;21.70;52.10;;;;;;6252069;28;20044;-80
2022/09/12 00:58:18;;;;;;;3.47;0.73;;;21.70;52.00;;;;;;6274298;28;20068;-80
2022/09/12 01:01:19;;;;;;;1.90;0.73;;;21.70;51.90;;;;;;6272393;28;20033;-81
2022/09/12 01:04:24;;;;;;;5.47;0.90;;;21.70;51.90;;;;;;6274514;28;20469;-81
2022/09/12 01:07:25;;;;;;;1.52;0.80;;;21.80;51.90;;;;;;6258576;28;20053;-80
2022/09/12 01:10:26;;;;;;;5.53;0.80;;;21.80;51.80;;;;;;6268582;28;20055;-81
2022/09/12 01:13:28;;;;;;;4.45;1.15;;;21.70;51.70;;;;;;6289125;28;20033;-81
2022/09/12 01:16:31;;;;;;;1.42;0.88;;;21.80;51.70;;;;;;6288428;28;20464;-80
2022/09/12 01:20:03;;;;;;;1.00;0.70;;;21.80;51.60;;;;;;6278831;28;20106;-80
2022/09/12 01:23:28;;;;;;;1.30;0.73;;;21.70;51.60;;;;;;6272099;28;20067;-80
2022/09/12 01:27:06;;;;;;;2.83;0.80;;;21.80;51.60;;;;;;6265640;28;20043;-80
2022/09/12 01:30:40;;;;;;;2.88;1.00;;;21.80;51.60;;;;;;6253912;28;20060;-81
2022/09/12 01:33:55;;;;;;;0.65;0.65;;;21.70;51.50;;;;;;6254275;28;20029;-80
2022/09/12 01:37:19;;;;;;;1.02;0.73;;;21.70;51.30;;;;;;6293009;28;20048;-80
2022/09/12 01:40:31;;;;;;;1.80;1.08;;;21.70;51.20;;;;;;6281229;28;20060;-80
2022/09/12 01:43:44;;;;;;;2.60;0.77;;;21.70;51.30;;;;;;6279079;28;20053;-80
2022/09/12 01:47:18;;;;;;;1.77;0.85;;;21.60;51.40;;;;;;6246362;28;20041;-80
2022/09/12 01:50:31;;;;;;;1.10;0.80;;;21.60;51.60;;;;;;6263785;28;20040;-80
2022/09/12 01:53:38;;;;;;;3.40;0.90;;;21.50;51.80;;;;;;6250688;28;20057;-81
2022/09/12 01:56:42;;;;;;;0.60;0.60;;;21.50;52.10;;;;;;6265293;28;20104;-80
2022/09/12 01:59:48;;;;;;;2.08;0.90;;;21.50;52.30;;;;;;6269453;28;20116;-80
2022/09/12 02:03:28;;;;;;;3.72;0.88;;;21.50;52.40;;;;;;6262263;28;20044;-80
2022/09/12 02:06:35;;;;;;;;;;;21.40;52.70;;;;;;6170527;28;20041;-80
2022/09/12 02:09:48;;;;;;;3.25;0.68;;;21.40;52.90;;;;;;6206262;28;19913;-80
2022/09/12 02:13:15;;;;;;;3.55;0.73;;;21.40;53.00;;;;;;6202994;28;20114;-80
2022/09/12 02:16:25;;;;;;;1.02;0.60;;;21.30;53.40;;;;;;6227752;28;20054;-79
2022/09/12 02:19:29;;;;;;;0.88;0.88;;;21.30;53.60;;;;;;6214501;28;20030;-79
2022/09/12 02:22:34;;;;;;;3.20;0.80;;;21.20;53.70;;;;;;6215216;28;20497;-79
2022/09/12 02:25:38;;;;;;;5.03;0.98;;;21.10;53.90;;;;;;6217390;28;20042;-79
2022/09/12 02:28:42;;;;;;;1.13;0.65;;;21.10;54.10;;;;;;6219627;28;20065;-79
2022/09/12 02:31:51;;;;;;;1.73;0.60;;;21.00;54.30;;;;;;6219087;28;20045;-79
2022/09/12 02:34:58;;;;;;;6.90;0.80;;;21.00;54.40;;;;;;6216659;28;20367;-78
2022/09/12 02:37:59;;;;;;;1.52;0.82;;;20.90;54.40;;;;;;6217722;28;20050;-80
2022/09/12 02:41:00;;;;;;;0.88;0.60;;;20.90;54.50;;;;;;6244853;28;20037;-79
2022/09/12 02:44:02;;;;;;;1.10;0.60;;;20.90;54.40;;;;;;6267094;28;20053;-79
2022/09/12 02:47:13;;;;;;;4.63;1.08;;;20.80;54.30;;;;;;6278829;28;20382;-79
2022/09/12 02:50:15;;;;;;;0.93;0.68;;;20.80;54.30;;;;;;6281782;28;20032;-80
2022/09/12 02:53:18;;;;;;;2.15;0.90;;;20.80;54.30;;;;;;6254445;28;20124;-79
2022/09/12 02:56:29;;;;;;;3.95;0.60;;;20.70;54.50;;;;;;6256122;28;20041;-80
2022/09/12 02:59:30;;;;;;;1.25;0.70;;;20.70;54.50;;;;;;6257282;28;20025;-79
2022/09/12 03:03:01;;;;;;;1.83;0.90;;;20.60;54.50;;;;;;6264762;28;20036;-79
2022/09/12 03:06:24;;;;;;;1.60;0.88;;;20.60;54.70;;;;;;6255214;28;20128;-80
2022/09/12 03:09:41;;;;;;;1.23;0.75;;;20.60;55.00;;;;;;6279572;28;20108;-79
2022/09/12 03:12:58;;;;;;;0.93;0.63;;;20.60;55.20;;;;;;6293112;28;20060;-79
2022/09/12 03:16:23;;;;;;;2.25;0.82;;;20.50;55.40;;;;;;6269418;28;20488;-79
2022/09/12 03:19:33;;;;;;;3.65;1.00;;;20.40;55.50;;;;;;6266200;28;20080;-80
2022/09/12 03:22:59;;;;;;;1.40;0.90;;;20.40;55.60;;;;;;6285088;28;20406;-80
2022/09/12 03:26:08;;;;;;;3.15;1.08;;;20.40;55.80;;;;;;6271470;28;20372;-79
2022/09/12 03:29:12;;;;;;;2.63;1.25;;;20.30;55.90;;;;;;6239239;28;20092;-80
2022/09/12 03:32:13;;;;;;;8.07;0.90;;;20.20;55.90;;;;;;6260956;28;20029;-79
2022/09/12 03:35:16;;;;;;;1.92;0.80;;;20.20;56.00;;;;;;6256143;28;20033;-80
2022/09/12 03:38:17;;;;;;;5.28;1.00;;;20.10;56.00;;;;;;6251263;28;20099;-80
2022/09/12 03:41:19;;;;;;;1.02;0.80;;;20.10;56.10;;;;;;6272702;28;20043;-79
2022/09/12 03:44:22;;;;;;;0.60;0.60;;;20.00;56.30;;;;;;6282814;28;20079;-79
2022/09/12 03:47:23;;;;;;;1.30;0.80;;;20.00;56.40;;;;;;6231383;28;20501;-79
2022/09/12 03:50:24;;;;;;;0.70;0.70;;;19.90;56.40;;;;;;6245529;28;20040;-79
2022/09/12 03:53:25;;;;;;;5.03;1.00;;;19.90;56.60;;;;;;6262996;28;20045;-80
2022/09/12 03:56:27;;;;;;;3.40;0.80;;;19.90;56.80;;;;;;6268886;28;20043;-79
2022/09/12 03:59:28;;;;;;;0.60;0.60;;;19.90;57.00;;;;;;6290779;28;20032;-80
2022/09/12 04:02:29;;;;;;;8.02;0.80;;;19.80;57.10;;;;;;6280351;28;20186;-79
2022/09/12 04:05:30;;;;;;;2.13;0.75;;;19.90;57.20;;;;;;6243464;28;20118;-79
2022/09/12 04:08:32;;;;;;;2.75;0.85;;;19.80;57.10;;;;;;6281535;28;20040;-79
2022/09/12 04:11:34;;;;;;;2.20;1.00;;;19.80;57.00;;;;;;6292460;28;20349;-80
2022/09/12 04:14:35;;;;;;;5.50;0.70;;;19.90;57.00;;;;;;6268660;28;20544;-80
2022/09/12 04:17:37;;;;;;;1.38;0.60;;;19.90;56.90;;;;;;6268506;28;20105;-80
2022/09/12 04:20:38;;;;;;;5.80;0.90;;;19.90;56.80;;;;;;6293113;28;20063;-80
2022/09/12 04:23:40;;;;;;;4.93;0.70;;;19.90;56.80;;;;;;6297226;28;20048;-79
2022/09/12 04:26:41;;;;;;;4.28;0.85;;;19.90;56.80;;;;;;6281645;28;20097;-80
2022/09/12 04:29:42;;;;;;;1.52;0.80;;;20.00;56.60;;;;;;6287391;28;20032;-79
2022/09/12 04:32:44;;;;;;;2.65;0.90;;;20.00;56.50;;;;;;6297262;28;20043;-80
2022/09/12 04:35:45;;;;;;;1.33;0.93;;;20.00;56.40;;;;;;6293158;28;20033;-79
2022/09/12 04:38:46;;;;;;;0.82;0.82;;;20.00;56.20;;;;;;6293013;28;20055;-79
2022/09/12 04:41:47;;;;;;;4.35;1.00;;;20.10;56.00;;;;;;6293546;28;20041;-79
2022/09/12 04:44:48;;;;;;;4.75;1.00;;;20.00;55.90;;;;;;6265686;28;20062;-79
2022/09/12 04:47:49;;;;;;;4.22;1.10;;;20.10;55.80;;;;;;6275043;28;20038;-80
2022/09/12 04:50:50;;;;;;;2.83;1.33;;;20.00;55.80;;;;;;6289911;28;20078;-79
2022/09/12 04:53:53;;;;;;;3.90;0.90;;;20.00;55.80;;;;;;6306637;28;20040;-80
2022/09/12 04:56:55;;;;;;;3.80;1.05;;;19.90;55.90;;;;;;6233756;28;20059;-80
2022/09/12 04:59:56;;;;;;;4.35;0.80;;;19.90;56.00;;;;;;6247430;28;20466;-79
2022/09/12 05:02:57;;;;;;;6.72;0.90;;;19.80;56.10;;;;;;6281905;28;20040;-80
2022/09/12 05:05:58;;;;;;;5.40;0.80;;;19.80;56.20;;;;;;6289851;28;20375;-81
2022/09/12 05:09:01;;;;;;;2.30;0.90;;;19.80;56.30;;;;;;6297424;28;20377;-79
2022/09/12 05:12:03;;;;;;;4.45;0.88;;;19.70;56.20;;;;;;6284240;28;20047;-83
2022/09/12 05:15:05;;;;;;;4.68;1.13;;;19.70;56.30;;;;;;6282638;28;20362;-81
2022/09/12 05:18:06;;;;;;;12.55;1.05;;;19.70;56.40;;;;;;6269565;28;20348;-81
2022/09/12 05:21:12;;;;;;;4.15;0.88;;;19.70;56.40;;;;;;6263412;28;20052;-82
2022/09/12 05:24:13;;;;;;;1.95;1.10;;;19.60;56.20;;;;;;6290813;28;20075;-81
2022/09/12 05:27:14;;;;;;;3.75;0.77;;;19.70;56.30;;;;;;6248266;28;20090;-83
2022/09/12 05:30:15;;;;;;;2.13;1.00;;;19.70;56.30;;;;;;6269948;28;20033;-81
2022/09/12 05:33:16;;;;;;;9.38;1.42;;;19.70;56.20;;;;;;6264912;28;20055;-80
2022/09/12 05:36:22;;;;;;;3.00;0.75;;;19.70;56.30;;;;;;6275161;28;20036;-80
2022/09/12 05:39:24;;;;;;;5.15;1.08;;;19.70;56.80;;;;;;6270282;28;20056;-82
2022/09/12 05:42:25;;;;;;;11.10;1.33;;;19.70;56.20;;;;;;6259333;28;20107;-80
2022/09/12 05:45:26;;;;;;;7.72;0.90;;;19.80;56.30;;;;;;6260565;28;20045;-78
2022/09/12 05:48:27;;;;;;;5.55;1.20;;;19.80;56.20;;;;;;6283342;28;20410;-80
2022/09/12 05:51:33;;;;;;;5.00;0.88;;;19.80;56.20;;;;;;6277107;28;20374;-79
2022/09/12 05:54:36;;;;;;;2.60;0.83;;;19.80;56.20;;;;;;6266295;28;20477;-79
2022/09/12 05:57:37;;;;;;;2.65;0.95;;;19.80;56.20;;;;;;6266431;28;20290;-79
2022/09/12 06:00:38;;;;;;;1.83;1.00;;;19.80;56.20;;;;;;6261787;28;20083;-78
2022/09/12 06:03:43;;;;;;;4.97;0.93;;;19.90;56.20;;;;;;6272106;28;20417;-78
2022/09/12 06:06:45;;;;;;;3.92;1.27;;;19.90;56.20;;;;;;6265799;28;20039;-79
2022/09/12 06:09:46;;;;;;;6.32;1.20;;;19.90;56.10;;;;;;6291020;28;20032;-82
2022/09/12 06:12:47;;;;;;;2.60;0.70;;;19.90;56.10;;;;;;6292897;28;20435;-83
2022/09/12 06:15:48;;;;;;;1.95;1.15;;;19.90;55.90;;;;;;6294613;28;20454;-84
2022/09/12 06:18:52;;;;;;;1.27;0.82;;;20.00;55.70;;;;;;6277240;28;20031;-83
2022/09/12 06:21:54;;;;;;;6.07;1.00;;;20.10;55.50;;;;;;6296953;28;20036;-83
2022/09/12 06:24:55;;;;;;;2.30;0.85;;;20.10;55.20;;;;;;6296538;28;20127;-83
2022/09/12 06:27:56;;;;;;;3.35;1.00;;;20.10;54.90;;;;;;6296734;28;20124;-83
2022/09/12 06:31:07;;;;;;;3.03;0.80;;;20.10;54.70;;;;;;6294489;28;20556;-83
2022/09/12 06:34:11;;;;;;;1.48;1.00;;;20.20;54.70;;;;;;6294297;28;20130;-85
2022/09/12 06:37:12;;;;;;;4.65;1.02;;;20.20;54.60;;;;;;6285197;28;20358;-84
2022/09/12 06:40:13;;;;;;;4.90;1.35;;;20.20;54.70;;;;;;6287226;28;20036;-84
2022/09/12 06:43:14;;;;;;;4.80;1.48;;;20.20;54.80;;;;;;6293171;28;20044;-83
2022/09/12 06:46:15;;;;;;;4.72;1.80;;;20.30;55.00;;;;;;6263359;28;20056;-84
2022/09/12 06:49:17;;;;;;;2.65;1.00;;;20.30;55.10;;;;;;6247322;28;20044;-85
2022/09/12 06:52:18;;;;;;;7.38;1.58;;;20.30;55.10;;;;;;6253277;28;20048;-84
2022/09/12 06:55:22;;;;;;;2.33;1.20;;;20.40;55.20;;;;;;6250013;28;20025;-84
2022/09/12 06:58:25;;;;;;;1.67;1.00;;;20.50;55.10;;;;;;6272245;28;20036;-83
2022/09/12 07:01:29;;;;;;;5.50;1.85;;;20.50;55.70;;;;;;6266849;28;20041;-83
2022/09/12 07:04:32;;;;;;;4.45;1.48;;;20.60;55.10;;;;;;6263875;28;20076;-84
2022/09/12 07:07:34;;;;;;;2.83;1.35;;;20.60;55.00;;;;;;6273081;28;20054;-83
2022/09/12 07:10:36;;;;;;;8.18;1.20;;;20.70;54.80;;;;;;6270124;28;20056;-82
2022/09/12 07:13:38;;;;;;;3.53;1.13;;;20.80;54.70;;;;;;6270248;28;20029;-82
2022/09/12 07:16:39;;;;;;;5.72;1.20;;;20.90;54.50;;;;;;6276635;28;20053;-83
2022/09/12 07:19:40;;;;;;;3.03;1.05;;;21.00;54.30;;;;;;6298548;28;20461;-83
2022/09/12 07:22:41;;;;;;;2.50;1.25;;;21.10;53.90;;;;;;6255416;28;20075;-83
2022/09/12 07:25:42;;;;;;;1.45;0.93;;;21.10;53.60;;;;;;6266924;28;20037;-83
2022/09/12 07:28:43;;;;;;;3.85;1.02;;;21.20;53.60;;;;;;6271360;28;20147;-83
2022/09/12 07:31:45;;;;;;;1.25;1.00;;;21.30;53.30;;;;;;6281255;28;20094;-83
2022/09/12 07:34:46;;;;;;;4.28;0.80;;;21.40;52.90;;;;;;6283014;28;20120;-82
2022/09/12 07:37:47;;;;;;;1.05;0.70;;;21.50;52.20;;;;;;6277399;28;20079;-74
2022/09/12 07:40:49;;;;;;;4.90;0.85;;;21.60;52.00;;;;;;6292883;28;20040;-75
2022/09/12 07:43:55;;;;;;;3.92;0.80;;;21.60;51.60;;;;;;6274860;28;20041;-76
2022/09/12 07:46:56;;;;;;;2.22;1.02;;;21.70;51.50;;;;;;6295219;28;20043;-76
2022/09/12 07:49:57;;;;;;;6.10;1.13;;;21.80;51.20;;;;;;6294137;28;20365;-76
2022/09/12 07:52:58;;;;;;;1.05;0.85;;;21.90;51.00;;;;;;6294675;28;20024;-77
2022/09/12 07:56:01;;;;;;;8.68;0.88;;;22.10;50.80;;;;;;6295460;28;20094;-75
2022/09/12 07:59:03;;;;;;;4.60;1.15;;;22.20;50.40;;;;;;6299135;28;20102;-75
2022/09/12 08:02:04;;;;;;;1.15;0.90;;;22.40;50.10;;;;;;6282432;28;20025;-76
2022/09/12 08:05:05;;;;;;;6.53;1.13;;;22.50;49.60;;;;;;6297099;28;20177;-76
2022/09/12 08:08:06;;;;;;;2.60;0.60;;;22.70;49.30;;;;;;6298446;28;20033;-75
2022/09/12 08:11:12;;;;;;;5.95;0.90;;;22.90;49.00;;;;;;6298449;28;20432;-76
2022/09/12 08:14:16;;;;;;;2.05;0.90;;;23.00;48.50;;;;;;6300164;28;20025;-76
2022/09/12 08:17:17;;;;;;;1.55;1.00;;;23.20;48.20;;;;;;6273048;28;20131;-75
2022/09/12 08:20:18;;;;;;;2.83;1.35;;;23.30;47.70;;;;;;6273558;28;20033;-77
2022/09/12 08:23:22;;;;;;;3.25;1.40;;;23.50;47.30;;;;;;6272325;28;20092;-76
2022/09/12 08:26:23;;;;;;;2.65;0.82;;;23.60;47.10;;;;;;6272505;28;20049;-76
2022/09/12 08:29:24;;;;;;;1.45;1.00;;;23.80;46.60;;;;;;6271569;28;20036;-75
2022/09/12 08:32:25;;;;;;;2.85;0.90;;;23.90;46.20;;;;;;6272637;28;20048;-75
2022/09/12 08:35:26;;;;;;;2.60;0.82;;;24.10;45.70;;;;;;6251410;28;20556;-75
2022/09/12 08:38:28;;;;;;;11.10;5.72;;;24.20;45.30;;;;;;6296477;28;20040;-76
2022/09/12 08:41:39;;;;;;;3.42;1.60;;;24.30;45.00;;;;;;6255789;28;20060;-76
2022/09/12 08:45:06;;;;;;;0.73;0.50;;;24.50;44.70;;;;;;6271227;28;20071;-76
2022/09/12 08:48:10;;;;;;;1.33;0.73;;;24.60;44.30;;;;;;6271504;28;20128;-76
2022/09/12 08:51:15;;;;;;;12.80;4.88;;;24.60;43.80;;;;;;6289493;28;20037;-75
2022/09/12 08:54:23;;;;;;;1.80;1.00;;;24.70;44.40;;;;;;6285021;28;20036;-76
2022/09/12 08:57:24;;;;;;;1.08;0.95;;;24.70;43.40;;;;;;6277152;28;20048;-76
2022/09/12 09:00:43;;;;;;;4.45;1.00;;;24.70;43.10;;;;;;6273600;28;20040;-76
2022/09/12 09:03:57;;;;;;;8.15;4.13;;;24.80;43.10;;;;;;6267841;28;20580;-75
2022/09/12 09:07:02;;;;;;;7.90;3.47;;;24.90;43.10;;;;;;6259891;28;20072;-78
2022/09/12 09:10:12;;;;;;;8.98;4.30;;;25.00;42.60;;;;;;6281324;28;20039;-76
2022/09/12 09:17:30;;;;;;;10.10;4.93;;;25.10;42.20;;;;;;6272472;28;20028;-76
2022/09/12 09:20:44;;;;;;;13.43;5.35;;;25.20;42.10;;;;;;6269104;28;20048;-75
2022/09/12 09:23:51;;;;;;;9.38;4.50;;;25.20;42.20;;;;;;6264989;28;20040;-76
2022/09/12 09:27:22;;;;;;;14.95;5.00;;;25.20;42.30;;;;;;6269434;28;20163;-76
2022/09/12 09:30:23;;;;;;;6.57;2.10;;;25.30;42.10;;;;;;6255711;28;20026;-75
2022/09/12 09:33:29;;;;;;;3.00;1.10;;;25.40;41.80;;;;;;6260405;28;20029;-76
2022/09/12 09:36:49;;;;;;;5.15;1.10;;;25.50;41.50;;;;;;6290838;28;20380;-76
2022/09/12 09:40:15;;;;;;;7.80;1.70;;;25.50;40.70;;;;;;6284145;28;20028;-75
2022/09/12 09:43:23;;;;;;;2.28;0.82;;;25.50;40.60;;;;;;6269061;28;20043;-77
2022/09/12 09:46:25;;;;;;;1.33;0.80;;;25.60;40.30;;;;;;6280067;28;20044;-75
2022/09/12 09:49:30;;;;;;;3.83;1.98;;;25.60;40.40;;;;;;6277128;28;20025;-77
2022/09/12 09:52:32;;;;;;;4.68;2.20;;;25.60;40.60;;;;;;6276377;28;20135;-77
2022/09/12 09:55:42;;;;;;;1.60;1.00;;;25.60;40.60;;;;;;6292430;28;20032;-77
2022/09/12 09:58:43;;;;;;;2.28;1.15;;;25.70;40.70;;;;;;6275414;28;20029;-77
2022/09/12 10:01:50;;;;;;;4.07;1.15;;;25.80;40.80;;;;;;6293644;28;20431;-77
2022/09/12 10:04:58;;;;;;;1.95;0.80;;;25.90;40.70;;;;;;6271081;28;20720;-76
2022/09/12 10:07:59;;;;;;;;;;;26.00;40.80;;;;;;6238338;28;20033;-77
2022/09/12 10:11:05;;;;;;;6.10;1.85;;;26.10;40.70;;;;;;6290659;28;20302;-77
2022/09/12 10:14:23;;;;;;;5.13;1.90;;;26.20;40.30;;;;;;6270893;28;20293;-75
2022/09/12 10:17:24;;;;;;;14.73;4.80;;;26.20;40.50;;;;;;6253761;28;20131;-76
2022/09/12 10:20:36;;;;;;;7.32;3.17;;;26.30;40.60;;;;;;6264697;28;20167;-76
2022/09/12 10:23:39;;;;;;;8.10;3.95;;;26.40;40.80;;;;;;6250307;28;20120;-76
2022/09/12 10:26:42;;;;;;;5.93;2.53;;;26.50;40.70;;;;;;6255096;28;20060;-76
2022/09/12 10:29:54;;;;;;;10.45;2.40;;;26.60;40.60;;;;;;6263952;28;20033;-76
2022/09/12 10:33:09;;;;;;;27.77;10.10;;;26.80;40.60;;;;;;6272877;28;20082;-75
2022/09/12 10:36:11;;;;;;;9.23;3.60;;;27.00;40.30;;;;;;6251332;28;20133;-76
2022/09/12 10:39:18;;;;;;;6.85;2.83;;;27.20;39.90;;;;;;6289843;28;20037;-76
2022/09/12 10:42:49;;;;;;;4.07;1.98;;;27.60;39.40;;;;;;6286716;28;20475;-77
2022/09/12 10:45:50;;;;;;;2.78;1.48;;;28.00;38.90;;;;;;6289083;28;20062;-75
2022/09/12 10:49:22;;;;;;;3.47;1.35;;;28.40;38.20;;;;;;6266525;28;20102;-75
2022/09/12 10:52:24;;;;;;;12.35;2.05;;;28.70;37.70;;;;;;6275555;28;20055;-76
2022/09/12 10:55:33;;;;;;;7.43;1.20;;;29.10;37.20;;;;;;6286267;28;20044;-76
2022/09/12 10:58:59;;;;;;;5.80;2.15;;;29.40;36.60;;;;;;6274228;28;20124;-77
2022/09/12 11:02:26;;;;;;;4.45;1.35;;;29.50;35.80;;;;;;6258025;28;20131;-76
2022/09/12 11:05:59;;;;;;;4.43;1.42;;;29.60;35.80;;;;;;6280002;28;20033;-78
2022/09/12 11:09:14;;;;;;;1.52;0.85;;;29.90;35.60;;;;;;6235254;28;20048;-76
2022/09/12 11:12:25;;;;;;;2.90;1.00;;;30.10;34.50;;;;;;6254292;28;20037;-75
2022/09/12 11:15:51;;;;;;;7.95;1.40;;;30.30;34.60;;;;;;6264508;28;20044;-75
2022/09/12 11:19:17;;;;;;;5.38;1.30;;;30.40;34.30;;;;;;6166919;28;20060;-77
2022/09/12 11:22:37;;;;;;;4.05;1.00;;;30.60;34.10;;;;;;6178529;28;20041;-76
2022/09/12 11:25:46;;;;;;;14.02;1.05;;;30.90;34.00;;;;;;6180706;28;20046;-77
2022/09/12 11:29:45;;;;;;;2.65;1.10;;;31.10;33.40;;;;;;6186596;28;20050;-77
2022/09/12 11:33:16;;;;;;;5.63;1.08;;;31.40;32.70;;;;;;6175243;28;20038;-75
2022/09/12 11:36:23;;;;;;;1.40;0.77;;;31.60;32.60;;;;;;6165069;28;20042;-76
2022/09/12 11:39:37;;;;;;;2.58;0.88;;;31.90;31.80;;;;;;6170296;28;20042;-76
2022/09/12 11:42:39;;;;;;;4.57;1.02;;;32.10;31.30;;;;;;6170395;28;20026;-78
2022/09/12 11:45:44;;;;;;;3.95;0.90;;;32.40;31.20;;;;;;6179953;28;20202;-75
2022/09/12 11:48:58;;;;;;;5.03;0.80;;;32.70;30.70;;;;;;6163232;28;20046;-78
2022/09/12 11:52:21;;;;;;;6.53;0.90;;;33.10;29.80;;;;;;6159312;28;20460;-78
2022/09/12 11:55:28;;;;;;;4.45;0.95;;;33.30;29.20;;;;;;6205940;28;20032;-76
2022/09/12 11:58:30;;;;;;;1.77;0.90;;;33.60;28.90;;;;;;6265069;28;20029;-77
2022/09/12 12:01:38;;;;;;;2.63;0.80;;;33.80;28.60;;;;;;6247251;28;20095;-76
2022/09/12 12:04:54;;;;;;;1.08;0.80;;;34.10;28.30;;;;;;6250076;28;20048;-76
2022/09/12 12:07:58;;;;;;;1.10;0.60;;;34.50;27.60;;;;;;6248620;28;20056;-76
2022/09/12 12:11:01;;;;;;;1.88;0.80;;;35.00;27.00;;;;;;6279362;28;20040;-77
2022/09/12 12:14:11;;;;;;;2.65;0.82;;;35.50;26.50;;;;;;6281967;28;20521;-76
2022/09/12 12:17:26;;;;;;;1.58;0.45;;;36.00;25.70;;;;;;6270566;28;20048;-76
2022/09/12 12:20:27;;;;;;;2.28;0.63;;;36.60;25.10;;;;;;6267425;28;20434;-76
2022/09/12 12:23:32;;;;;;;1.02;0.52;;;37.10;24.40;;;;;;6266778;28;20086;-76
2022/09/12 12:26:40;;;;;;;1.40;0.77;;;37.60;23.90;;;;;;6260155;28;20350;-76
2022/09/12 12:29:43;;;;;;;2.47;0.70;;;38.30;23.50;;;;;;6233593;28;20025;-76
2022/09/12 12:32:44;;;;;;;6.75;0.90;;;39.00;23.10;;;;;;6283679;28;20041;-76
2022/09/12 12:36:04;;;;;;;0.40;0.40;;;39.60;22.50;;;;;;6290284;28;20462;-75
2022/09/12 12:39:33;;;;;;;4.57;0.65;;;40.00;21.90;;;;;;6272460;28;20043;-75
2022/09/12 12:42:34;;;;;;;5.32;0.65;;;40.40;21.40;;;;;;6266534;28;20025;-76
2022/09/12 12:45:35;;;;;;;0.55;0.50;;;40.80;21.20;;;;;;6276065;28;20033;-76
2022/09/12 12:48:44;;;;;;;1.38;0.60;;;41.10;20.90;;;;;;6290260;28;20074;-76
2022/09/12 12:51:54;;;;;;;4.00;0.77;;;41.40;20.60;;;;;;6293309;28;20037;-76
2022/09/12 12:54:58;;;;;;;5.53;0.95;;;41.60;20.30;;;;;;6292558;28;20045;-76
2022/09/12 12:58:01;;;;;;;1.67;0.57;;;42.10;20.70;;;;;;6291317;28;20090;-76
2022/09/12 13:01:08;;;;;;;4.22;1.02;;;42.50;19.80;;;;;;6255162;28;20210;-76
2022/09/12 13:04:17;;;;;;;;;;;43.10;19.50;;;;;;6288091;28;20040;-76
2022/09/12 13:07:32;;;;;;;1.17;0.47;;;43.50;19.40;;;;;;6290621;28;19912;-76
2022/09/12 13:10:34;;;;;;;5.07;0.70;;;43.70;19.10;;;;;;6291974;28;20033;-76
2022/09/12 13:13:37;;;;;;;10.32;0.57;;;44.00;18.80;;;;;;6276697;28;20423;-76
2022/09/12 13:16:57;;;;;;;1.42;0.50;;;44.40;18.50;;;;;;6289976;28;20064;-77
2022/09/12 13:20:16;;;;;;;3.35;0.57;;;44.70;18.40;;;;;;6272274;28;20038;-77
2022/09/12 13:23:27;;;;;;;2.25;0.50;;;44.60;17.80;;;;;;6249869;28;20064;-76
2022/09/12 13:26:34;;;;;;;5.57;0.45;;;44.80;17.90;;;;;;6232828;28;20106;-76
2022/09/12 13:29:37;;;;;;;1.23;0.88;;;44.90;18.20;;;;;;6264505;28;20197;-76
2022/09/12 13:32:38;;;;;;;1.95;0.73;;;45.00;17.70;;;;;;6237225;28;20055;-77
2022/09/12 13:35:57;;;;;;;3.97;0.70;;;45.00;17.50;;;;;;6266492;28;20036;-76
2022/09/12 13:39:07;;;;;;;1.48;0.70;;;44.80;17.60;;;;;;6244148;28;20050;-76
2022/09/12 13:42:29;;;;;;;2.90;0.65;;;44.50;17.60;;;;;;6256801;28;20043;-77
2022/09/12 13:45:37;;;;;;;3.10;0.70;;;43.40;18.30;;;;;;6291245;28;20040;-76
2022/09/12 13:48:39;;;;;;;3.83;0.55;;;42.10;19.00;;;;;;6292453;28;20790;-76
2022/09/12 13:51:42;;;;;;;6.22;0.63;;;40.90;19.90;;;;;;6253582;28;20087;-76
2022/09/12 13:54:47;;;;;;;0.93;0.60;;;39.80;20.70;;;;;;6275164;28;20033;-77
2022/09/12 13:57:56;;;;;;;4.22;0.50;;;38.80;21.30;;;;;;6276443;28;20102;-76
2022/09/12 14:01:03;;;;;;;0.73;0.40;;;38.00;21.90;;;;;;6276577;28;20060;-76
2022/09/12 14:07:53;;;;;;;1.10;0.57;;;36.40;23.30;;;;;;6247332;28;20037;-76
2022/09/12 14:10:55;;;;;;;1.95;0.70;;;35.80;23.80;;;;;;6243388;28;20120;-76
2022/09/12 14:13:57;;;;;;;1.33;0.50;;;35.40;24.10;;;;;;6243716;28;20041;-76
2022/09/12 14:16:59;;;;;;;1.45;0.40;;;35.10;24.50;;;;;;6285221;28;20041;-76
2022/09/12 14:20:04;;;;;;;2.25;0.43;;;34.80;24.90;;;;;;6289727;28;20362;-77
2022/09/12 14:23:26;;;;;;;3.20;0.47;;;34.50;25.20;;;;;;6291234;28;20349;-75
2022/09/12 14:26:31;;;;;;;1.58;0.52;;;34.20;26.00;;;;;;6279739;28;20684;-76
2022/09/12 14:29:33;;;;;;;1.33;0.40;;;34.10;25.80;;;;;;6263860;28;20064;-75
2022/09/12 14:32:34;;;;;;;1.42;0.50;;;33.90;26.10;;;;;;6284036;28;20354;-75
2022/09/12 14:35:44;;;;;;;1.90;0.52;;;33.80;26.30;;;;;;6285580;28;20032;-75
2022/09/12 14:38:52;;;;;;;4.40;1.58;;;33.60;26.50;;;;;;6285083;28;20091;-75
2022/09/12 14:42:06;;;;;;;0.60;0.60;;;33.50;26.90;;;;;;6290699;28;20318;-75
2022/09/12 14:45:30;;;;;;;1.67;0.40;;;33.30;27.20;;;;;;6288654;28;20060;-75
2022/09/12 14:48:41;;;;;;;1.48;0.50;;;33.20;27.40;;;;;;6290940;28;20040;-76
2022/09/12 14:52:03;;;;;;;7.72;0.77;;;33.20;27.60;;;;;;6290359;28;20032;-77
2022/09/12 14:55:28;;;;;;;3.55;0.82;;;33.00;27.90;;;;;;6290695;28;20033;-78
2022/09/12 14:58:29;;;;;;;1.90;0.63;;;33.00;28.10;;;;;;6266232;28;20034;-77
2022/09/12 15:01:31;;;;;;;4.78;0.60;;;33.00;28.20;;;;;;6262989;28;20127;-76
2022/09/12 15:04:45;;;;;;;1.35;0.47;;;32.90;28.30;;;;;;6268550;28;20506;-78
2022/09/12 15:08:01;;;;;;;0.77;0.70;;;32.90;28.50;;;;;;6263451;28;20032;-77
2022/09/12 15:11:06;;;;;;;4.13;0.60;;;32.90;28.60;;;;;;6288107;28;20029;-77
2022/09/12 15:14:13;;;;;;;2.67;0.73;;;32.80;28.80;;;;;;6288931;28;20049;-75
2022/09/12 15:17:14;;;;;;;0.73;0.57;;;32.70;28.90;;;;;;6271217;28;20527;-76
2022/09/12 15:20:15;;;;;;;6.68;0.60;;;32.70;28.90;;;;;;6265095;28;20045;-77
2022/09/12 15:23:39;;;;;;;7.93;1.00;;;32.70;29.00;;;;;;6267038;28;20040;-76
2022/09/12 15:26:40;;;;;;;3.13;0.80;;;32.70;29.20;;;;;;6269134;28;20183;-76
2022/09/12 15:29:42;;;;;;;5.50;0.70;;;32.70;29.20;;;;;;6259338;28;20041;-76
2022/09/12 15:32:44;;;;;;;3.45;0.60;;;32.70;29.30;;;;;;6272060;28;20411;-77
2022/09/12 15:35:46;;;;;;;3.80;0.90;;;32.70;29.30;;;;;;6284094;28;20028;-76
2022/09/12 15:38:48;;;;;;;7.20;0.80;;;32.70;29.40;;;;;;6284861;28;20091;-76
2022/09/12 15:41:49;;;;;;;3.30;1.15;;;32.70;29.40;;;;;;6284586;28;20040;-76
2022/09/12 15:44:53;;;;;;;2.25;0.45;;;32.70;29.60;;;;;;6284987;28;20223;-76
2022/09/12 15:47:55;;;;;;;0.60;0.60;;;32.70;29.60;;;;;;6284643;28;20512;-74
2022/09/12 15:51:00;;;;;;;2.15;0.68;;;32.70;29.70;;;;;;6285754;28;20097;-77
2022/09/12 15:54:03;;;;;;;0.68;0.40;;;32.70;29.70;;;;;;6263717;28;20029;-76
2022/09/12 15:57:04;;;;;;;0.95;0.60;;;32.70;29.70;;;;;;6291440;28;20036;-76
2022/09/12 16:00:06;;;;;;;1.48;0.65;;;32.70;29.70;;;;;;6282445;28;20102;-76
2022/09/12 16:03:22;;;;;;;2.35;0.60;;;32.80;29.80;;;;;;6288885;28;20412;-76
2022/09/12 16:06:23;;;;;;;1.90;0.60;;;32.90;29.80;;;;;;6283720;28;20448;-77
2022/09/12 16:09:24;;;;;;;2.67;0.57;;;33.00;29.70;;;;;;6292819;28;20082;-77
2022/09/12 16:12:25;;;;;;;1.42;0.88;;;33.10;29.60;;;;;;6288054;28;20040;-76
2022/09/12 16:15:26;;;;;;;2.38;0.60;;;33.40;29.50;;;;;;6281377;28;20029;-76
2022/09/12 16:18:28;;;;;;;1.02;0.50;;;33.90;29.00;;;;;;6293479;28;20043;-76
2022/09/12 16:21:29;;;;;;;1.65;0.70;;;34.50;28.60;;;;;;6292551;28;20036;-76